Time;durP1;ratioP1;P1;durP2;ratioP2;P2;SDS_P1;SDS_P2;PMS_P1;PMS_P2;Temp;Humidity;BMP_temperature;BMP_pressure;BME280_temperature;BME280_humidity;BME280_pressure;Samples;Min_cycle;Max_cycle;Signal;HPM_P1;HPM_P2
2022/02/22 00:02:14;;;;;;;14.95;3.92;;;6.80;90.30;;;;;;4966197;28;20504;-84
2022/02/22 00:04:43;;;;;;;16.38;4.35;;;6.80;90.30;;;;;;4965672;28;20455;-82
2022/02/22 00:07:10;;;;;;;14.73;4.18;;;6.80;90.40;;;;;;4960041;28;20038;-82
2022/02/22 00:09:36;;;;;;;18.65;4.78;;;6.80;90.50;;;;;;4959474;28;20037;-81
2022/02/22 00:12:03;;;;;;;18.15;4.93;;;6.80;90.50;;;;;;4965162;28;20035;-83
2022/02/22 00:14:30;;;;;;;21.13;5.13;;;6.70;90.60;;;;;;4961557;28;20027;-83
2022/02/22 00:16:56;;;;;;;26.90;6.55;;;6.70;90.70;;;;;;4948027;28;20368;-84
2022/02/22 00:19:23;;;;;;;21.02;5.82;;;6.70;90.80;;;;;;4961297;28;20142;-83
2022/02/22 00:21:50;;;;;;;13.50;5.82;;;6.70;90.70;;;;;;4965929;28;20033;-83
2022/02/22 00:24:16;;;;;;;17.55;5.55;;;6.60;90.70;;;;;;4951400;28;20416;-84
2022/02/22 00:26:42;;;;;;;15.30;5.10;;;6.60;90.80;;;;;;4964919;28;20030;-84
2022/02/22 00:29:08;;;;;;;21.85;6.57;;;6.50;90.90;;;;;;4953294;28;20039;-83
2022/02/22 00:31:35;;;;;;;18.88;5.28;;;6.50;90.80;;;;;;4960352;28;20085;-85
2022/02/22 00:34:02;;;;;;;15.88;4.95;;;6.50;91.00;;;;;;4967487;28;20031;-82
2022/02/22 00:36:28;;;;;;;18.90;4.88;;;6.40;91.00;;;;;;4968174;28;20191;-80
2022/02/22 00:38:54;;;;;;;20.50;6.18;;;6.30;91.00;;;;;;4975032;28;20026;-80
2022/02/22 00:41:19;;;;;;;19.85;5.05;;;6.30;91.10;;;;;;4968020;28;20578;-84
2022/02/22 00:43:46;;;;;;;19.58;4.78;;;6.30;91.10;;;;;;4964845;28;20120;-82
2022/02/22 00:46:12;;;;;;;13.65;4.10;;;6.30;91.10;;;;;;4968246;28;20027;-81
2022/02/22 00:48:38;;;;;;;16.17;4.50;;;6.20;91.10;;;;;;4963651;28;20035;-82
2022/02/22 00:51:04;;;;;;;16.10;4.72;;;6.20;91.10;;;;;;4969386;28;20470;-81
2022/02/22 00:53:29;;;;;;;13.50;4.38;;;6.20;91.00;;;;;;4958856;28;20039;-84
2022/02/22 00:55:55;;;;;;;16.35;4.13;;;6.20;90.90;;;;;;4950584;28;20034;-84
2022/02/22 00:58:21;;;;;;;16.83;4.10;;;6.20;90.80;;;;;;4960756;28;20034;-82
2022/02/22 01:00:47;;;;;;;19.20;4.70;;;6.20;90.60;;;;;;4962944;28;20035;-83
2022/02/22 01:03:13;;;;;;;17.63;3.75;;;6.10;90.70;;;;;;4974236;28;20092;-84
2022/02/22 01:05:39;;;;;;;18.30;3.95;;;6.10;90.80;;;;;;4963586;28;20030;-84
2022/02/22 01:08:05;;;;;;;16.67;3.92;;;6.10;90.80;;;;;;4961217;28;20391;-83
2022/02/22 01:10:31;;;;;;;19.48;3.78;;;6.10;90.70;;;;;;4965459;28;20422;-81
2022/02/22 01:12:57;;;;;;;19.75;4.07;;;6.10;90.60;;;;;;4960922;28;20676;-83
2022/02/22 01:15:24;;;;;;;14.35;3.65;;;6.10;90.50;;;;;;4966432;28;20038;-84
2022/02/22 01:17:50;;;;;;;13.95;3.88;;;6.10;90.50;;;;;;4944699;28;20153;-82
2022/02/22 01:20:16;;;;;;;18.02;3.90;;;6.20;90.40;;;;;;4961475;28;20046;-83
2022/02/22 01:22:42;;;;;;;12.60;3.30;;;6.10;90.30;;;;;;4974030;28;20455;-83
2022/02/22 01:25:09;;;;;;;17.98;3.35;;;6.10;90.30;;;;;;4963326;28;20082;-80
2022/02/22 01:27:36;;;;;;;19.70;4.53;;;6.10;90.30;;;;;;4967706;28;20023;-83
2022/02/22 01:30:03;;;;;;;19.38;4.03;;;6.00;90.30;;;;;;4943465;28;20130;-84
2022/02/22 01:32:29;;;;;;;18.38;4.28;;;6.00;90.30;;;;;;4961692;28;20113;-84
2022/02/22 01:34:55;;;;;;;15.95;4.22;;;5.90;90.30;;;;;;4963599;28;20223;-83
2022/02/22 01:37:21;;;;;;;16.80;3.80;;;5.90;90.50;;;;;;4960435;28;20352;-85
2022/02/22 01:39:47;;;;;;;20.38;5.00;;;5.90;90.50;;;;;;4962060;28;20026;-83
2022/02/22 01:42:13;;;;;;;15.73;4.03;;;5.80;90.50;;;;;;4960491;28;20389;-83
2022/02/22 01:44:39;;;;;;;16.25;4.38;;;5.80;90.60;;;;;;4962087;28;20471;-80
2022/02/22 01:47:07;;;;;;;19.92;4.60;;;5.80;90.60;;;;;;4960275;28;20035;-82
2022/02/22 01:49:34;;;;;;;17.75;4.25;;;5.80;90.60;;;;;;4962162;28;20031;-81
2022/02/22 01:52:04;;;;;;;21.27;4.65;;;5.80;90.60;;;;;;4964955;28;20037;-84
2022/02/22 01:54:30;;;;;;;13.70;3.53;;;5.70;90.50;;;;;;4957667;28;20035;-84
2022/02/22 01:56:56;;;;;;;17.00;3.90;;;5.80;90.50;;;;;;4965956;28;20817;-83
2022/02/22 01:59:22;;;;;;;16.55;4.35;;;5.80;90.40;;;;;;4959903;28;20031;-83
2022/02/22 02:01:47;;;;;;;13.77;3.40;;;5.70;90.30;;;;;;4968901;28;20038;-84
2022/02/22 02:04:13;;;;;;;16.42;4.35;;;5.70;90.30;;;;;;4952612;28;20043;-84
2022/02/22 02:06:39;;;;;;;16.50;3.90;;;5.70;90.40;;;;;;4973356;28;20575;-81
2022/02/22 02:09:08;;;;;;;14.48;3.30;;;5.60;90.30;;;;;;4971813;28;20031;-81
2022/02/22 02:11:54;;;;;;;17.02;3.42;;;5.60;90.40;;;;;;4948583;28;20054;-81
2022/02/22 02:14:20;;;;;;;16.67;3.65;;;5.60;90.30;;;;;;4967526;28;20473;-82
2022/02/22 02:16:46;;;;;;;17.80;4.35;;;5.60;90.30;;;;;;4968673;28;20043;-82
2022/02/22 02:19:14;;;;;;;14.45;3.47;;;5.60;90.20;;;;;;4965742;28;20054;-82
2022/02/22 02:21:40;;;;;;;10.02;3.08;;;5.50;90.20;;;;;;4970577;28;20510;-84
2022/02/22 02:24:20;;;;;;;14.30;3.20;;;5.50;90.20;;;;;;4970268;28;20042;-84
2022/02/22 02:26:48;;;;;;;18.48;4.20;;;5.50;90.10;;;;;;4947739;28;20041;-84
2022/02/22 02:29:16;;;;;;;15.00;3.05;;;5.40;90.00;;;;;;4968308;28;20062;-83
2022/02/22 02:31:43;;;;;;;14.27;3.28;;;5.40;90.00;;;;;;4974235;28;20043;-84
2022/02/22 02:34:11;;;;;;;16.38;4.10;;;5.40;89.90;;;;;;4960405;28;20066;-84
2022/02/22 02:36:39;;;;;;;15.20;3.17;;;5.30;89.90;;;;;;4975375;28;20105;-81
2022/02/22 02:39:06;;;;;;;13.13;3.42;;;5.30;89.90;;;;;;4961306;28;20039;-83
2022/02/22 02:41:32;;;;;;;12.95;4.20;;;5.30;89.90;;;;;;4961413;28;20141;-84
2022/02/22 02:44:09;;;;;;;13.80;5.25;;;5.20;90.00;;;;;;4979663;28;20041;-83
2022/02/22 02:46:36;;;;;;;15.50;4.97;;;5.20;90.10;;;;;;4978523;28;20295;-83
2022/02/22 02:49:02;;;;;;;17.92;5.50;;;5.10;90.10;;;;;;4967999;28;20031;-80
2022/02/22 02:51:28;;;;;;;16.05;5.88;;;5.10;90.10;;;;;;4964569;28;20531;-82
2022/02/22 02:53:54;;;;;;;23.45;7.40;;;5.10;90.00;;;;;;4977344;28;20802;-85
2022/02/22 02:56:22;;;;;;;14.10;6.72;;;5.10;89.90;;;;;;4975162;28;20494;-82
2022/02/22 02:58:52;;;;;;;20.55;10.45;;;5.00;90.00;;;;;;4970806;28;20038;-80
2022/02/22 03:01:19;;;;;;;28.23;10.32;;;5.00;90.20;;;;;;4964773;28;20341;-82
2022/02/22 03:03:45;;;;;;;27.67;10.40;;;5.10;90.30;;;;;;4968157;28;20039;-81
2022/02/22 03:06:11;;;;;;;25.80;10.65;;;5.10;90.50;;;;;;4967615;28;20110;-80
2022/02/22 03:08:37;;;;;;;26.20;9.00;;;5.10;90.60;;;;;;4964102;28;20130;-80
2022/02/22 03:11:02;;;;;;;23.27;9.52;;;5.00;90.60;;;;;;4968529;28;20371;-84
2022/02/22 03:13:28;;;;;;;21.58;8.82;;;5.10;90.70;;;;;;4968457;28;20038;-84
2022/02/22 03:15:54;;;;;;;29.98;9.75;;;5.10;90.80;;;;;;4966521;28;20043;-81
2022/02/22 03:18:19;;;;;;;25.80;9.73;;;5.10;90.80;;;;;;4965168;28;20082;-83
2022/02/22 03:20:45;;;;;;;24.85;8.07;;;5.10;90.90;;;;;;4965322;28;20098;-84
2022/02/22 03:23:11;;;;;;;26.80;9.52;;;5.10;90.90;;;;;;4968358;28;20505;-83
2022/02/22 03:25:37;;;;;;;27.73;11.43;;;5.10;91.10;;;;;;4967686;28;20034;-83
2022/02/22 03:28:06;;;;;;;26.45;11.32;;;5.10;91.20;;;;;;4971024;28;20041;-84
2022/02/22 03:30:32;;;;;;;25.25;10.15;;;5.10;91.30;;;;;;4964117;28;20577;-84
2022/02/22 03:33:01;;;;;;;29.83;9.75;;;5.10;91.30;;;;;;4971634;28;20110;-84
2022/02/22 03:35:27;;;;;;;37.70;9.23;;;5.10;91.50;;;;;;4947830;28;20026;-86
2022/02/22 03:37:53;;;;;;;35.88;10.13;;;5.10;91.40;;;;;;4981056;28;20042;-82
2022/02/22 03:40:19;;;;;;;34.22;10.30;;;5.10;91.40;;;;;;4965605;28;20471;-83
2022/02/22 03:42:46;;;;;;;26.85;8.63;;;5.10;91.50;;;;;;4945933;28;20046;-81
2022/02/22 03:45:13;;;;;;;31.98;9.93;;;5.10;91.60;;;;;;4975768;28;20118;-79
2022/02/22 03:47:40;;;;;;;30.48;9.10;;;5.10;91.50;;;;;;4969727;28;20085;-84
2022/02/22 03:50:08;;;;;;;29.55;9.25;;;5.10;91.60;;;;;;4973491;28;20034;-84
2022/02/22 03:52:34;;;;;;;31.65;9.00;;;5.00;91.60;;;;;;4964272;28;20089;-83
2022/02/22 03:55:00;;;;;;;34.60;9.13;;;5.00;91.70;;;;;;4969141;28;20062;-81
2022/02/22 03:57:26;;;;;;;36.15;8.70;;;5.00;91.60;;;;;;4949858;28;20031;-81
2022/02/22 03:59:52;;;;;;;31.70;9.13;;;5.00;91.70;;;;;;4966639;28;20038;-81
2022/02/22 04:02:18;;;;;;;29.75;7.85;;;5.00;91.70;;;;;;4965104;28;20092;-85
2022/02/22 04:04:43;;;;;;;34.65;9.18;;;5.00;91.70;;;;;;4964701;28;20217;-84
2022/02/22 04:07:09;;;;;;;33.10;9.88;;;4.90;91.70;;;;;;4990787;28;20371;-82
2022/02/22 04:09:34;;;;;;;28.77;8.55;;;4.90;91.70;;;;;;4967655;28;20027;-84
2022/02/22 04:12:00;;;;;;;32.70;8.25;;;4.90;91.80;;;;;;4965170;28;20066;-82
2022/02/22 04:14:26;;;;;;;30.63;9.70;;;4.90;91.70;;;;;;4965589;28;20154;-84
2022/02/22 04:16:51;;;;;;;35.92;8.75;;;4.90;91.60;;;;;;4975806;28;20482;-84
2022/02/22 04:19:17;;;;;;;26.48;8.13;;;4.80;91.60;;;;;;4967383;28;20039;-83
2022/02/22 04:21:43;;;;;;;34.90;9.05;;;4.90;91.60;;;;;;4963560;28;20111;-82
2022/02/22 04:24:08;;;;;;;28.85;7.43;;;4.80;91.50;;;;;;4959056;28;20039;-83
2022/02/22 04:26:34;;;;;;;34.25;7.70;;;4.80;91.60;;;;;;4965258;28;20046;-84
2022/02/22 04:29:00;;;;;;;31.25;8.15;;;4.80;91.50;;;;;;4970920;28;20065;-84
2022/02/22 04:31:33;;;;;;;26.70;7.00;;;4.80;91.50;;;;;;4982852;28;20027;-80
2022/02/22 04:33:59;;;;;;;27.27;8.02;;;4.80;91.50;;;;;;4989888;28;20039;-80
2022/02/22 04:36:25;;;;;;;31.75;8.40;;;4.80;91.40;;;;;;4972005;28;20099;-79
2022/02/22 04:38:51;;;;;;;34.83;7.45;;;4.70;91.40;;;;;;4983373;28;20087;-81
2022/02/22 04:41:17;;;;;;;29.67;8.10;;;4.70;91.40;;;;;;4973141;28;20454;-84
2022/02/22 04:43:42;;;;;;;34.72;7.85;;;4.70;91.40;;;;;;4977314;28;20046;-84
2022/02/22 04:46:08;;;;;;;27.02;8.25;;;4.60;91.30;;;;;;4972143;28;20173;-79
2022/02/22 04:48:33;;;;;;;26.90;7.55;;;4.60;91.40;;;;;;4967198;28;20035;-84
2022/02/22 04:50:59;;;;;;;29.75;7.80;;;4.60;91.40;;;;;;4966724;28;20058;-81
2022/02/22 04:53:25;;;;;;;32.53;7.85;;;4.60;91.40;;;;;;4945286;28;20058;-83
2022/02/22 04:55:50;;;;;;;23.70;7.10;;;4.60;91.50;;;;;;4962344;28;20549;-83
2022/02/22 04:58:16;;;;;;;36.88;7.32;;;4.60;91.40;;;;;;4963567;28;20450;-84
2022/02/22 05:00:42;;;;;;;40.92;7.97;;;4.60;91.50;;;;;;4968734;28;20049;-85
2022/02/22 05:03:08;;;;;;;32.05;7.53;;;4.60;91.50;;;;;;4975571;28;20089;-84
2022/02/22 05:05:33;;;;;;;30.45;7.43;;;4.60;91.50;;;;;;4970161;28;20062;-79
2022/02/22 05:07:59;;;;;;;32.78;8.23;;;4.50;91.50;;;;;;4966561;28;20509;-83
2022/02/22 05:10:25;;;;;;;36.50;7.53;;;4.50;91.50;;;;;;4961885;28;20525;-82
2022/02/22 05:12:50;;;;;;;26.58;6.53;;;4.60;91.50;;;;;;4963677;28;20045;-84
2022/02/22 05:15:16;;;;;;;33.97;6.80;;;4.50;91.60;;;;;;4963628;28;20031;-84
2022/02/22 05:17:41;;;;;;;35.55;8.30;;;4.60;91.60;;;;;;4962497;28;20039;-85
2022/02/22 05:20:08;;;;;;;36.10;8.63;;;4.60;91.60;;;;;;4971078;28;20082;-82
2022/02/22 05:22:41;;;;;;;38.28;8.48;;;4.60;91.50;;;;;;4967813;28;20026;-85
2022/02/22 05:25:08;;;;;;;30.00;6.93;;;4.60;91.40;;;;;;4959662;28;20051;-85
2022/02/22 05:27:33;;;;;;;38.90;8.52;;;4.70;91.40;;;;;;4954773;28;20027;-85
2022/02/22 05:29:59;;;;;;;26.90;7.22;;;4.70;91.40;;;;;;4959636;28;20031;-85
2022/02/22 05:32:26;;;;;;;33.00;8.63;;;4.70;91.30;;;;;;4936322;28;20035;-82
2022/02/22 05:34:52;;;;;;;32.33;7.30;;;4.70;91.20;;;;;;4968107;28;20031;-81
2022/02/22 05:37:17;;;;;;;28.60;7.57;;;4.70;91.20;;;;;;4958836;28;20035;-86
2022/02/22 05:39:43;;;;;;;25.50;8.18;;;4.70;91.10;;;;;;4957721;28;20035;-84
2022/02/22 05:42:09;;;;;;;23.88;7.00;;;4.80;91.10;;;;;;4961862;28;20049;-85
2022/02/22 05:44:34;;;;;;;31.63;7.35;;;4.80;91.00;;;;;;4957123;28;20031;-86
2022/02/22 05:47:00;;;;;;;28.17;6.95;;;4.90;90.90;;;;;;4970748;28;20039;-83
2022/02/22 05:49:26;;;;;;;32.60;7.32;;;4.90;90.80;;;;;;4959013;28;20050;-83
2022/02/22 05:51:54;;;;;;;31.23;7.22;;;5.00;90.70;;;;;;4953761;28;20224;-84
2022/02/22 05:54:20;;;;;;;31.65;7.78;;;5.00;90.70;;;;;;4959280;28;20073;-85
2022/02/22 05:56:45;;;;;;;30.25;7.15;;;5.10;90.70;;;;;;4942124;28;20117;-82
2022/02/22 05:59:12;;;;;;;37.17;7.93;;;5.10;90.50;;;;;;4950207;28;20474;-82
2022/02/22 06:01:38;;;;;;;30.60;7.30;;;5.10;90.40;;;;;;4958512;28;20383;-82
2022/02/22 06:04:05;;;;;;;29.75;8.52;;;5.10;90.40;;;;;;4946244;28;20043;-84
2022/02/22 06:06:30;;;;;;;28.42;7.20;;;5.20;90.30;;;;;;4943445;28;20095;-84
2022/02/22 06:08:56;;;;;;;30.52;8.20;;;5.20;90.30;;;;;;4954820;28;20412;-81
2022/02/22 06:11:22;;;;;;;28.80;7.30;;;5.20;90.30;;;;;;4941939;28;20398;-82
2022/02/22 06:13:48;;;;;;;34.88;7.80;;;5.20;90.20;;;;;;4954704;28;20483;-82
2022/02/22 06:16:13;;;;;;;28.83;8.27;;;5.30;90.30;;;;;;4959437;28;20081;-84
2022/02/22 06:18:39;;;;;;;26.90;8.35;;;5.30;90.30;;;;;;4960709;28;20250;-82
2022/02/22 06:21:05;;;;;;;33.75;8.82;;;5.40;90.30;;;;;;4958916;28;20027;-83
2022/02/22 06:23:30;;;;;;;30.10;8.95;;;5.50;90.10;;;;;;4943026;28;20132;-80
2022/02/22 06:25:56;;;;;;;24.70;7.55;;;5.40;90.00;;;;;;4960640;28;20043;-83
2022/02/22 06:28:22;;;;;;;32.03;8.40;;;5.50;90.10;;;;;;4971501;28;20066;-81
2022/02/22 06:30:47;;;;;;;31.65;6.95;;;5.50;90.20;;;;;;4966167;28;20479;-81
2022/02/22 06:33:13;;;;;;;36.63;7.45;;;5.50;90.00;;;;;;4965189;28;20054;-83
2022/02/22 06:35:38;;;;;;;32.78;8.85;;;5.60;90.00;;;;;;4968427;28;20031;-84
2022/02/22 06:38:04;;;;;;;38.00;8.18;;;5.60;90.00;;;;;;4965648;28;20037;-82
2022/02/22 06:40:31;;;;;;;31.90;7.75;;;5.60;90.10;;;;;;4974070;28;20394;-83
2022/02/22 06:42:57;;;;;;;31.23;8.13;;;5.60;90.10;;;;;;4959821;28;20477;-80
2022/02/22 06:45:23;;;;;;;30.42;8.07;;;5.60;90.20;;;;;;4959001;28;20047;-84
2022/02/22 06:47:49;;;;;;;30.50;6.93;;;5.70;90.20;;;;;;4951431;28;20053;-84
2022/02/22 06:50:16;;;;;;;33.65;8.27;;;5.70;90.20;;;;;;4956493;28;20467;-82
2022/02/22 06:52:42;;;;;;;31.73;7.38;;;5.80;90.00;;;;;;4953802;28;20043;-85
2022/02/22 06:55:12;;;;;;;27.80;6.68;;;5.90;89.90;;;;;;4958373;28;20110;-83
2022/02/22 06:57:39;;;;;;;29.98;7.85;;;5.90;89.90;;;;;;4958927;28;20039;-84
2022/02/22 07:00:09;;;;;;;25.73;7.85;;;5.90;89.90;;;;;;4960911;28;20914;-84
2022/02/22 07:02:36;;;;;;;37.47;8.18;;;5.90;90.00;;;;;;4962098;28;20499;-83
2022/02/22 07:05:03;;;;;;;31.60;7.22;;;6.00;90.00;;;;;;4959803;28;20118;-85
2022/02/22 07:07:29;;;;;;;30.70;8.15;;;5.90;90.00;;;;;;4961848;28;20037;-83
2022/02/22 07:09:55;;;;;;;38.10;8.45;;;6.00;90.00;;;;;;4959859;28;20043;-85
2022/02/22 07:12:21;;;;;;;38.25;8.40;;;6.00;90.10;;;;;;4956159;28;20420;-84
2022/02/22 07:14:47;;;;;;;32.42;8.60;;;6.10;90.10;;;;;;4942360;28;20364;-84
2022/02/22 07:17:12;;;;;;;34.45;7.93;;;6.10;90.10;;;;;;4971189;28;20125;-85
2022/02/22 07:19:38;;;;;;;45.72;9.25;;;6.10;90.00;;;;;;4977155;28;20027;-82
2022/02/22 07:22:04;;;;;;;31.60;7.63;;;6.10;90.00;;;;;;4940032;28;20112;-84
2022/02/22 07:24:30;;;;;;;38.15;8.20;;;6.20;90.10;;;;;;4959897;28;20504;-79
2022/02/22 07:26:56;;;;;;;31.10;8.02;;;6.20;90.00;;;;;;4966084;28;20042;-79
2022/02/22 07:29:23;;;;;;;38.83;8.73;;;6.30;90.00;;;;;;4945707;28;20038;-79
2022/02/22 07:31:49;;;;;;;38.47;10.43;;;6.30;90.00;;;;;;4949642;28;20074;-79
2022/02/22 07:34:15;;;;;;;38.85;8.63;;;6.40;90.00;;;;;;4961429;28;20132;-81
2022/02/22 07:36:41;;;;;;;35.67;9.27;;;6.40;90.10;;;;;;4965353;28;20117;-74
2022/02/22 07:39:08;;;;;;;32.30;8.10;;;6.50;90.30;;;;;;4963617;28;20059;-74
2022/02/22 07:41:34;;;;;;;40.22;9.60;;;6.60;90.40;;;;;;4965695;28;20169;-74
2022/02/22 07:43:59;;;;;;;34.70;8.52;;;6.70;90.30;;;;;;4967821;28;20042;-74
2022/02/22 07:46:25;;;;;;;38.60;8.48;;;6.80;90.30;;;;;;4969855;28;20125;-76
2022/02/22 07:48:51;;;;;;;48.78;10.73;;;7.00;90.20;;;;;;4963796;28;20038;-74
2022/02/22 07:51:18;;;;;;;41.55;9.50;;;7.10;90.10;;;;;;4969553;28;20050;-74
2022/02/22 07:53:48;;;;;;;39.13;8.85;;;7.30;89.90;;;;;;4944743;28;20043;-74
2022/02/22 07:56:17;;;;;;;41.75;9.50;;;7.40;89.70;;;;;;4962799;28;20033;-76
2022/02/22 07:58:43;;;;;;;51.10;11.27;;;7.60;89.40;;;;;;4967595;28;20049;-75
2022/02/22 08:01:12;;;;;;;48.55;11.38;;;7.60;89.00;;;;;;4971012;28;20478;-75
2022/02/22 08:03:43;;;;;;;47.55;9.52;;;7.70;88.90;;;;;;4968402;28;20042;-74
2022/02/22 08:06:11;;;;;;;41.10;9.52;;;7.80;88.70;;;;;;4959602;28;20398;-74
2022/02/22 08:08:42;;;;;;;49.58;11.02;;;7.90;88.60;;;;;;4957548;28;20035;-74
2022/02/22 08:11:08;;;;;;;43.67;9.77;;;7.90;88.40;;;;;;4963701;28;20038;-76
2022/02/22 08:13:34;;;;;;;46.97;9.27;;;8.10;88.40;;;;;;4946060;28;20486;-75
2022/02/22 08:16:00;;;;;;;52.67;13.93;;;8.10;88.30;;;;;;4971146;28;20498;-76
2022/02/22 08:18:27;;;;;;;50.45;10.73;;;8.20;88.00;;;;;;4965958;28;20038;-74
2022/02/22 08:20:53;;;;;;;47.65;10.32;;;8.30;87.80;;;;;;4940923;28;20043;-75
2022/02/22 08:23:19;;;;;;;47.42;10.77;;;8.20;87.60;;;;;;4962739;28;20045;-75
2022/02/22 08:25:45;;;;;;;53.70;11.48;;;8.20;87.70;;;;;;4964606;28;20073;-75
2022/02/22 08:28:11;;;;;;;55.67;11.73;;;8.20;87.80;;;;;;4974533;28;20085;-78
2022/02/22 08:30:38;;;;;;;50.55;11.55;;;8.20;88.00;;;;;;4976787;28;20611;-75
2022/02/22 08:33:08;;;;;;;57.33;11.60;;;8.20;88.10;;;;;;4972582;28;20057;-74
2022/02/22 08:35:35;;;;;;;49.72;10.60;;;8.30;87.90;;;;;;4968000;28;20069;-75
2022/02/22 08:38:01;;;;;;;66.65;13.55;;;8.30;88.00;;;;;;4959884;28;20047;-74
2022/02/22 08:40:27;;;;;;;45.40;10.82;;;8.40;88.00;;;;;;4961979;28;20031;-74
2022/02/22 08:42:53;;;;;;;46.45;10.40;;;8.50;88.10;;;;;;4947337;28;20051;-78
2022/02/22 08:45:19;;;;;;;52.85;11.70;;;8.60;87.80;;;;;;4961060;28;20069;-78
2022/02/22 08:47:45;;;;;;;50.50;10.93;;;8.80;87.60;;;;;;4960201;28;20045;-77
2022/02/22 08:50:11;;;;;;;55.60;11.35;;;8.90;87.30;;;;;;4958000;28;20424;-84
2022/02/22 08:52:37;;;;;;;48.35;10.50;;;9.00;87.30;;;;;;4969117;28;20104;-77
2022/02/22 08:55:03;;;;;;;54.70;11.65;;;9.20;87.10;;;;;;4967030;28;20125;-78
2022/02/22 08:57:30;;;;;;;53.20;12.18;;;9.40;86.60;;;;;;4946161;28;20031;-79
2022/02/22 08:59:56;;;;;;;59.70;12.23;;;9.50;86.00;;;;;;4960898;28;20119;-80
2022/02/22 09:02:21;;;;;;;44.05;9.93;;;9.50;85.90;;;;;;4966599;28;20039;-81
2022/02/22 09:04:47;;;;;;;50.85;10.95;;;9.40;85.80;;;;;;4961639;28;20035;-78
2022/02/22 09:07:13;;;;;;;50.97;12.57;;;9.20;86.00;;;;;;4973830;28;20061;-78
2022/02/22 09:09:39;;;;;;;50.17;11.35;;;9.10;86.10;;;;;;4963546;28;20375;-78
2022/02/22 09:12:05;;;;;;;52.45;10.52;;;9.10;86.40;;;;;;4968034;28;20382;-78
2022/02/22 09:14:31;;;;;;;49.35;11.85;;;9.00;86.90;;;;;;4968452;28;20062;-78
2022/02/22 09:16:57;;;;;;;41.75;11.18;;;9.00;87.20;;;;;;4964488;28;20069;-78
2022/02/22 09:19:23;;;;;;;45.58;11.20;;;8.90;87.60;;;;;;4960192;28;20035;-83
2022/02/22 09:21:48;;;;;;;49.83;10.07;;;9.00;87.40;;;;;;4963798;28;20038;-81
2022/02/22 09:24:14;;;;;;;51.05;11.45;;;9.00;87.30;;;;;;4960019;28;20094;-80
2022/02/22 09:26:40;;;;;;;54.17;10.70;;;9.10;87.40;;;;;;4962462;28;20435;-81
2022/02/22 09:29:06;;;;;;;48.33;11.05;;;9.00;87.20;;;;;;4958397;28;20499;-77
2022/02/22 09:31:32;;;;;;;48.75;11.57;;;9.10;87.40;;;;;;4962845;28;20035;-78
2022/02/22 09:33:58;;;;;;;53.92;11.63;;;9.10;87.70;;;;;;4961839;28;20046;-76
2022/02/22 09:36:24;;;;;;;48.90;10.30;;;9.30;87.60;;;;;;4941683;28;20476;-77
2022/02/22 09:38:50;;;;;;;43.35;10.90;;;9.40;87.40;;;;;;4963010;28;20140;-77
2022/02/22 09:41:16;;;;;;;51.30;11.73;;;9.50;86.90;;;;;;4962112;28;20035;-79
2022/02/22 09:43:42;;;;;;;48.78;10.43;;;9.60;87.00;;;;;;4964237;28;20115;-76
2022/02/22 09:46:09;;;;;;;42.05;9.98;;;9.60;86.80;;;;;;4967761;28;20050;-77
2022/02/22 09:48:36;;;;;;;44.35;10.65;;;9.70;86.60;;;;;;4944057;28;20370;-77
2022/02/22 09:51:05;;;;;;;45.83;10.75;;;9.80;86.00;;;;;;4961151;28;20070;-77
2022/02/22 09:53:32;;;;;;;41.13;9.98;;;9.80;85.90;;;;;;4979200;28;20031;-81
2022/02/22 09:55:58;;;;;;;44.45;9.85;;;9.70;85.70;;;;;;4974879;28;20413;-77
2022/02/22 09:58:24;;;;;;;47.60;9.63;;;9.70;86.10;;;;;;4959944;28;20039;-76
2022/02/22 10:01:01;;;;;;;35.35;8.50;;;9.70;85.80;;;;;;4947779;28;20039;-77
2022/02/22 10:03:27;;;;;;;44.08;9.95;;;9.80;86.10;;;;;;4963781;28;20054;-77
2022/02/22 10:05:55;;;;;;;38.40;9.52;;;9.80;86.00;;;;;;4976342;28;20505;-76
2022/02/22 10:08:26;;;;;;;29.67;8.50;;;9.80;86.00;;;;;;4969302;28;20115;-77
2022/02/22 10:11:06;;;;;;;40.50;8.30;;;9.80;86.10;;;;;;4950455;28;20038;-76
2022/02/22 10:13:33;;;;;;;35.78;8.63;;;9.70;86.00;;;;;;4962007;28;20458;-76
2022/02/22 10:16:03;;;;;;;33.58;7.53;;;9.60;86.30;;;;;;4959882;28;20104;-76
2022/02/22 10:18:29;;;;;;;26.73;8.43;;;9.70;86.80;;;;;;4961079;28;20041;-78
2022/02/22 10:20:55;;;;;;;36.80;8.05;;;9.60;87.20;;;;;;4965201;28;20039;-75
2022/02/22 10:23:31;;;;;;;31.42;8.05;;;9.70;87.10;;;;;;4953076;28;20483;-77
2022/02/22 10:25:59;;;;;;;31.02;7.50;;;9.70;87.20;;;;;;4953995;28;20038;-79
2022/02/22 10:28:26;;;;;;;36.50;7.60;;;9.80;87.10;;;;;;4975693;28;20599;-78
2022/02/22 10:30:53;;;;;;;24.92;7.45;;;9.80;86.90;;;;;;4966056;28;20039;-75
2022/02/22 10:33:21;;;;;;;26.05;6.78;;;9.90;86.80;;;;;;4963896;28;20031;-79
2022/02/22 10:35:51;;;;;;;22.40;6.68;;;10.00;86.80;;;;;;4963798;28;20058;-79
2022/02/22 10:38:22;;;;;;;31.10;7.57;;;10.00;86.60;;;;;;4954761;28;20027;-80
2022/02/22 10:40:54;;;;;;;25.80;6.70;;;10.00;86.70;;;;;;4963382;28;20049;-78
2022/02/22 10:43:25;;;;;;;25.65;6.03;;;10.10;86.80;;;;;;4962643;28;20034;-79
2022/02/22 10:45:54;;;;;;;24.33;5.90;;;10.10;86.60;;;;;;4965453;28;20419;-77
2022/02/22 10:48:31;;;;;;;23.70;6.93;;;10.20;86.60;;;;;;4946636;28;20382;-80
2022/02/22 10:50:58;;;;;;;26.38;5.75;;;10.30;86.50;;;;;;4953949;28;20039;-77
2022/02/22 10:53:34;;;;;;;19.40;5.78;;;10.30;86.40;;;;;;4966703;28;20062;-81
2022/02/22 10:56:01;;;;;;;19.17;5.22;;;10.30;86.10;;;;;;4976008;28;20035;-77
2022/02/22 10:58:27;;;;;;;20.60;5.38;;;10.30;86.30;;;;;;4962126;28;20062;-76
2022/02/22 11:00:54;;;;;;;20.67;5.63;;;10.20;86.60;;;;;;4951891;28;20546;-75
2022/02/22 11:03:20;;;;;;;21.35;5.82;;;10.20;86.90;;;;;;4944931;28;20077;-77
2022/02/22 11:05:48;;;;;;;22.73;6.63;;;10.20;86.90;;;;;;4958599;28;20031;-77
2022/02/22 11:08:15;;;;;;;27.15;6.38;;;10.10;87.10;;;;;;4958754;28;20598;-78
2022/02/22 11:10:52;;;;;;;20.98;6.85;;;10.10;87.30;;;;;;4962140;28;20039;-79
2022/02/22 11:13:25;;;;;;;18.65;6.55;;;10.10;87.50;;;;;;4953404;28;20225;-77
2022/02/22 11:15:51;;;;;;;24.05;5.93;;;10.10;87.80;;;;;;4966886;28;20494;-76
2022/02/22 11:18:19;;;;;;;18.73;5.88;;;10.20;88.00;;;;;;4957056;28;20130;-79
2022/02/22 11:20:46;;;;;;;18.77;5.80;;;10.30;87.80;;;;;;4957305;28;20101;-79
2022/02/22 11:23:23;;;;;;;15.13;5.28;;;10.40;87.80;;;;;;4953575;28;20130;-77
2022/02/22 11:25:49;;;;;;;15.02;5.82;;;10.50;87.60;;;;;;4970743;28;20827;-77
2022/02/22 11:28:15;;;;;;;14.13;5.68;;;10.60;87.50;;;;;;4955140;28;20038;-80
2022/02/22 11:30:42;;;;;;;16.90;5.57;;;10.60;87.50;;;;;;4953979;28;20094;-79
2022/02/22 11:33:15;;;;;;;18.33;5.45;;;10.60;87.50;;;;;;4944333;28;20481;-80
2022/02/22 11:35:57;;;;;;;20.30;5.53;;;10.70;87.60;;;;;;4960766;28;20038;-81
2022/02/22 11:38:25;;;;;;;10.43;4.88;;;10.80;87.60;;;;;;4978139;28;20025;-80
2022/02/22 11:40:53;;;;;;;14.52;4.80;;;10.90;87.30;;;;;;4981065;28;20125;-80
2022/02/22 11:43:21;;;;;;;14.23;4.95;;;11.00;87.10;;;;;;4976933;28;20054;-79
2022/02/22 11:45:51;;;;;;;12.73;4.40;;;11.00;86.90;;;;;;4972585;28;20036;-76
2022/02/22 11:48:33;;;;;;;12.27;4.15;;;11.00;86.70;;;;;;4938986;28;20095;-78
2022/02/22 11:51:08;;;;;;;10.93;3.90;;;11.00;87.20;;;;;;4953100;28;20038;-80
2022/02/22 11:53:37;;;;;;;12.40;4.03;;;11.10;87.20;;;;;;4940339;28;20090;-77
2022/02/22 11:56:03;;;;;;;14.30;4.90;;;11.10;87.00;;;;;;4937620;28;20165;-79
2022/02/22 11:58:36;;;;;;;14.25;4.60;;;11.30;86.80;;;;;;4933373;28;20039;-80
2022/02/22 12:01:06;;;;;;;13.27;4.47;;;11.40;86.40;;;;;;4936033;28;20031;-77
2022/02/22 12:03:43;;;;;;;13.93;5.03;;;11.40;86.20;;;;;;4934048;28;20106;-79
2022/02/22 12:06:09;;;;;;;16.98;6.10;;;11.50;86.00;;;;;;4936972;28;20230;-77
2022/02/22 12:08:41;;;;;;;12.68;4.18;;;11.50;85.80;;;;;;4939261;28;20035;-78
2022/02/22 12:11:27;;;;;;;13.90;4.50;;;11.50;85.50;;;;;;4936379;28;20482;-77
2022/02/22 12:14:00;;;;;;;19.58;5.55;;;11.50;85.60;;;;;;4944139;28;20141;-79
2022/02/22 12:16:29;;;;;;;14.77;6.85;;;11.50;85.70;;;;;;4948121;28;20108;-78
2022/02/22 12:18:57;;;;;;;17.20;6.88;;;11.60;85.60;;;;;;4942069;28;20059;-77
2022/02/22 12:21:25;;;;;;;14.85;5.32;;;11.60;85.20;;;;;;4926603;28;20047;-81
2022/02/22 12:23:52;;;;;;;14.30;4.20;;;11.80;85.00;;;;;;4954843;28;20404;-77
2022/02/22 12:26:21;;;;;;;14.93;4.72;;;11.90;84.60;;;;;;4945234;28;20807;-79
2022/02/22 12:28:54;;;;;;;15.50;4.32;;;12.10;84.40;;;;;;4956076;28;20122;-78
2022/02/22 12:31:36;;;;;;;15.90;4.50;;;12.00;83.70;;;;;;4945322;28;20047;-81
2022/02/22 12:34:05;;;;;;;17.20;5.50;;;12.00;83.80;;;;;;4954620;28;20125;-76
2022/02/22 12:36:32;;;;;;;14.25;5.07;;;12.10;83.60;;;;;;4931473;28;20039;-75
2022/02/22 12:39:00;;;;;;;43.63;6.35;;;12.00;83.60;;;;;;4960261;28;20059;-77
2022/02/22 12:41:32;;;;;;;14.98;4.22;;;11.90;83.80;;;;;;4956669;28;20030;-79
2022/02/22 12:43:57;;;;;;;15.20;4.68;;;11.90;84.10;;;;;;4949936;28;20078;-76